Terminal Aerodrome Forecast
Issued by NWS

Home | Current Version | Previous Version | Text Only | Print | Product List | Glossary On
Versions: 1 2 3 4 5 6 7 8 9 10 11 12 13 14
000
FTUS45 KSLC 302345
TAFPVU
TAF
KPVU 302345Z 0100/0124 13010KT P6SM VCSH SCT060 BKN090
     FM010100 12010G18KT P6SM SCT060 BKN150
     FM010800 36012KT P6SM SCT070 BKN120
     FM011300 04020G26KT P6SM SCT040 BKN090
      AMD LTD TO CLD VIS AND WIND=

USA.gov is the U.S. government's official web portal to all federal, state and local government web resources and services.